Time;durP1;ratioP1;P1;durP2;ratioP2;P2;SDS_P1;SDS_P2;PMS_P1;PMS_P2;Temp;Humidity;BMP_temperature;BMP_pressure;BME280_temperature;BME280_humidity;BME280_pressure;Samples;Min_cycle;Max_cycle;Signal;HPM_P1;HPM_P2
2021/09/06 00:01:11;;;;;;;17.63;11.63;;;17.50;1.00;;;;;;4999777;28;20211;-52
2021/09/06 00:03:38;;;;;;;16.43;11.27;;;17.40;1.00;;;;;;5000449;28;20208;-51
2021/09/06 00:06:05;;;;;;;19.07;11.67;;;17.50;1.00;;;;;;5001767;28;20287;-52
2021/09/06 00:08:32;;;;;;;19.23;12.40;;;17.50;1.00;;;;;;5003307;28;20207;-52
2021/09/06 00:11:06;;;;;;;17.93;11.67;;;17.60;1.00;;;;;;5001589;28;20331;-52
2021/09/06 00:13:33;;;;;;;20.07;11.60;;;17.60;1.00;;;;;;5001633;28;20193;-51
2021/09/06 00:16:01;;;;;;;16.53;10.53;;;17.60;1.00;;;;;;5001697;28;20348;-52
2021/09/06 00:18:28;;;;;;;18.37;11.47;;;17.70;1.00;;;;;;5003699;28;20205;-51
2021/09/06 00:20:57;;;;;;;17.60;11.90;;;17.60;1.00;;;;;;5001782;28;20304;-52
2021/09/06 00:23:25;;;;;;;19.60;11.97;;;17.60;1.00;;;;;;5011511;28;20331;-51
2021/09/06 00:25:52;;;;;;;18.93;11.97;;;17.50;1.00;;;;;;4997248;28;20242;-51
2021/09/06 00:28:19;;;;;;;16.57;11.30;;;17.50;1.00;;;;;;5002490;28;20240;-51
2021/09/06 00:30:47;;;;;;;16.50;11.83;;;17.40;1.00;;;;;;5002010;28;20232;-52
2021/09/06 00:33:14;;;;;;;15.00;11.30;;;17.30;1.00;;;;;;5002385;28;20540;-51
2021/09/06 00:35:40;;;;;;;16.17;10.97;;;17.30;1.00;;;;;;5010107;28;20591;-51
2021/09/06 00:38:07;;;;;;;21.43;12.07;;;17.20;1.00;;;;;;5002590;28;20292;-51
2021/09/06 00:40:34;;;;;;;17.10;11.57;;;17.10;1.00;;;;;;4999710;28;20637;-52
2021/09/06 00:43:01;;;;;;;18.40;11.63;;;17.10;27.70;;;;;;5005385;28;20334;-52
2021/09/06 00:45:28;;;;;;;17.60;11.70;;;17.00;29.20;;;;;;4997611;28;20301;-52
2021/09/06 00:47:55;;;;;;;21.43;12.47;;;16.90;74.90;;;;;;4998551;28;20209;-51
2021/09/06 00:50:22;;;;;;;20.57;12.20;;;16.90;93.30;;;;;;4997122;28;20197;-52
2021/09/06 00:52:49;;;;;;;17.80;11.43;;;16.90;99.90;;;;;;4998608;28;20566;-51
2021/09/06 00:55:17;;;;;;;18.60;11.50;;;16.90;99.90;;;;;;4997825;28;20444;-52
2021/09/06 00:57:45;;;;;;;21.40;13.03;;;16.90;99.90;;;;;;4998469;28;20258;-52
2021/09/06 01:00:13;;;;;;;19.87;12.43;;;16.80;99.90;;;;;;5000003;28;20205;-52
2021/09/06 01:02:41;;;;;;;21.90;12.70;;;16.70;99.90;;;;;;4997501;28;20223;-51
2021/09/06 01:05:09;;;;;;;17.93;12.33;;;16.70;99.90;;;;;;5002553;28;20209;-52
2021/09/06 01:07:37;;;;;;;19.47;12.33;;;16.70;99.90;;;;;;4998231;28;20326;-52
2021/09/06 01:10:07;;;;;;;16.30;11.10;;;16.60;99.90;;;;;;5000401;28;20341;-51
2021/09/06 01:12:35;;;;;;;21.23;13.23;;;16.60;99.90;;;;;;4997199;28;20251;-51
2021/09/06 01:15:03;;;;;;;19.37;12.47;;;16.70;99.90;;;;;;4997125;28;20251;-51
2021/09/06 01:17:30;;;;;;;18.23;12.07;;;16.70;99.90;;;;;;4997334;28;20202;-52
2021/09/06 01:19:58;;;;;;;17.97;11.47;;;16.70;99.90;;;;;;4995195;28;20679;-51
2021/09/06 01:22:25;;;;;;;20.13;11.27;;;16.70;99.90;;;;;;5001615;28;20522;-51
2021/09/06 01:24:52;;;;;;;17.50;11.80;;;16.70;99.90;;;;;;4996737;28;20567;-52
2021/09/06 01:27:19;;;;;;;18.27;11.97;;;16.80;99.90;;;;;;4999911;28;20339;-51
2021/09/06 01:29:46;;;;;;;18.60;11.83;;;16.70;99.90;;;;;;4994532;28;20513;-52
2021/09/06 01:32:13;;;;;;;20.90;12.50;;;16.70;99.90;;;;;;4992015;28;20307;-51
2021/09/06 01:34:40;;;;;;;22.27;12.17;;;16.60;99.90;;;;;;4996673;28;20576;-52
2021/09/06 01:37:06;;;;;;;17.87;12.30;;;16.50;99.90;;;;;;4998262;28;20669;-52
2021/09/06 01:39:33;;;;;;;22.50;11.60;;;16.40;99.90;;;;;;4995973;28;20291;-51
2021/09/06 01:42:00;;;;;;;20.00;11.93;;;16.50;99.90;;;;;;5009511;28;20772;-51
2021/09/06 01:44:27;;;;;;;19.73;12.53;;;16.40;99.90;;;;;;4996180;28;20281;-51
2021/09/06 01:46:54;;;;;;;18.63;12.17;;;16.50;99.90;;;;;;4991727;28;20932;-51
2021/09/06 01:49:21;;;;;;;17.77;11.57;;;16.50;99.90;;;;;;4995803;28;20695;-51
2021/09/06 01:51:47;;;;;;;18.03;11.40;;;16.50;99.90;;;;;;4998826;28;20222;-51
2021/09/06 01:54:14;;;;;;;22.07;13.20;;;16.50;99.90;;;;;;4997702;28;20350;-51
2021/09/06 01:56:41;;;;;;;20.87;12.20;;;16.40;99.90;;;;;;4997413;28;20343;-51
2021/09/06 01:59:08;;;;;;;18.43;12.83;;;16.30;99.90;;;;;;4999363;28;20234;-52
2021/09/06 02:01:35;;;;;;;20.67;12.80;;;16.20;99.90;;;;;;4996834;28;20304;-51
2021/09/06 02:04:02;;;;;;;17.13;11.80;;;16.20;99.90;;;;;;4994487;28;20592;-51
2021/09/06 02:06:29;;;;;;;19.00;11.97;;;16.30;99.90;;;;;;4998132;28;20767;-51
2021/09/06 02:08:56;;;;;;;22.30;12.47;;;16.30;99.90;;;;;;4999233;28;20367;-52
2021/09/06 02:11:23;;;;;;;17.90;12.27;;;16.20;99.90;;;;;;4999083;28;20300;-51
2021/09/06 02:13:50;;;;;;;22.27;13.07;;;16.30;99.90;;;;;;4999940;28;20255;-51
2021/09/06 02:16:17;;;;;;;22.30;12.13;;;16.20;99.90;;;;;;5002371;28;20341;-51
2021/09/06 02:18:48;;;;;;;22.87;13.77;;;16.20;99.90;;;;;;5003346;28;20629;-52
2021/09/06 02:21:15;;;;;;;18.30;12.33;;;16.20;99.90;;;;;;5001518;28;20441;-51
2021/09/06 02:23:42;;;;;;;17.33;11.70;;;16.10;99.90;;;;;;5002293;28;20787;-51
2021/09/06 02:26:09;;;;;;;19.63;12.73;;;16.10;99.90;;;;;;4998833;28;20757;-52
2021/09/06 02:28:36;;;;;;;17.50;11.47;;;16.10;99.90;;;;;;5002029;28;20190;-52
2021/09/06 02:31:02;;;;;;;20.43;12.47;;;16.10;99.90;;;;;;5003094;28;20556;-51
2021/09/06 02:33:29;;;;;;;18.43;11.97;;;16.10;99.90;;;;;;5003030;28;20203;-51
2021/09/06 02:35:56;;;;;;;19.93;12.50;;;16.20;99.90;;;;;;5000723;28;20303;-51
2021/09/06 02:38:23;;;;;;;20.17;13.20;;;16.10;99.90;;;;;;5001866;28;20205;-51
2021/09/06 02:40:49;;;;;;;20.67;12.80;;;16.10;99.90;;;;;;5001064;28;20208;-51
2021/09/06 02:43:16;;;;;;;18.23;11.37;;;16.00;99.90;;;;;;5002496;28;20544;-51
2021/09/06 02:45:43;;;;;;;18.03;12.47;;;16.10;99.90;;;;;;5000070;28;20250;-51
2021/09/06 02:48:10;;;;;;;17.03;11.47;;;16.00;99.90;;;;;;5004634;28;20226;-52
2021/09/06 02:50:36;;;;;;;21.10;12.57;;;16.00;99.90;;;;;;5003894;28;20524;-51
2021/09/06 02:53:03;;;;;;;18.60;12.37;;;16.00;99.90;;;;;;5002641;28;20288;-51
2021/09/06 02:55:30;;;;;;;21.37;12.37;;;15.90;99.90;;;;;;4999308;28;20196;-51
2021/09/06 02:57:57;;;;;;;21.40;12.70;;;15.90;99.90;;;;;;5001354;28;20304;-51
2021/09/06 03:00:25;;;;;;;17.47;11.93;;;15.90;99.90;;;;;;5002438;28;20331;-51
2021/09/06 03:02:52;;;;;;;21.33;13.07;;;15.90;99.90;;;;;;5003203;28;20638;-51
2021/09/06 03:05:19;;;;;;;20.97;12.30;;;15.80;99.90;;;;;;5002739;28;20284;-51
2021/09/06 03:07:46;;;;;;;21.10;13.57;;;15.70;99.90;;;;;;5005311;28;21848;-51
2021/09/06 03:10:13;;;;;;;20.07;11.80;;;15.70;99.90;;;;;;5002458;28;20337;-51
2021/09/06 03:12:40;;;;;;;22.00;13.03;;;15.70;99.90;;;;;;5001887;28;20239;-51
2021/09/06 03:15:07;;;;;;;22.07;12.90;;;15.80;99.90;;;;;;5001846;28;20295;-51
2021/09/06 03:17:34;;;;;;;19.33;11.67;;;15.80;99.90;;;;;;5002575;28;20402;-50
2021/09/06 03:20:02;;;;;;;23.93;13.00;;;15.80;99.90;;;;;;5002750;28;20319;-51
2021/09/06 03:22:29;;;;;;;18.57;11.30;;;15.90;99.90;;;;;;4998740;28;20228;-51
2021/09/06 03:24:55;;;;;;;16.57;11.90;;;15.80;99.90;;;;;;5000168;28;20401;-51
2021/09/06 03:27:22;;;;;;;21.40;12.03;;;15.70;99.90;;;;;;4997814;28;20305;-51
2021/09/06 03:29:49;;;;;;;18.67;12.10;;;15.70;99.90;;;;;;4994695;28;20592;-52
2021/09/06 03:32:16;;;;;;;20.63;12.57;;;15.60;99.90;;;;;;4998415;28;20647;-52
2021/09/06 03:34:42;;;;;;;22.13;13.50;;;15.70;99.90;;;;;;4997088;28;20201;-51
2021/09/06 03:37:09;;;;;;;19.93;13.30;;;15.70;99.90;;;;;;5000437;28;20623;-51
2021/09/06 03:39:36;;;;;;;20.20;13.27;;;15.60;99.90;;;;;;4995745;28;20692;-52
2021/09/06 03:42:03;;;;;;;19.87;12.67;;;15.60;99.90;;;;;;4999806;28;20293;-51
2021/09/06 03:44:30;;;;;;;18.97;12.67;;;15.60;99.90;;;;;;4999156;28;20279;-51
2021/09/06 03:46:57;;;;;;;19.13;13.37;;;15.50;99.90;;;;;;5000662;28;20258;-51
2021/09/06 03:49:28;;;;;;;24.03;13.10;;;15.50;99.90;;;;;;4999688;28;20198;-51
2021/09/06 03:51:54;;;;;;;20.33;13.00;;;15.50;99.90;;;;;;4998540;28;20288;-51
2021/09/06 03:54:21;;;;;;;20.47;13.27;;;15.50;99.90;;;;;;4998025;28;20319;-51
2021/09/06 03:56:48;;;;;;;18.43;12.13;;;15.50;99.90;;;;;;4998007;28;20689;-52
2021/09/06 03:59:15;;;;;;;20.53;12.77;;;15.40;99.90;;;;;;4998136;28;20303;-51
2021/09/06 04:01:41;;;;;;;17.53;11.93;;;15.30;99.90;;;;;;4997660;28;20231;-51
2021/09/06 04:04:09;;;;;;;16.03;11.00;;;15.30;99.90;;;;;;4996373;28;20208;-51
2021/09/06 04:06:35;;;;;;;17.83;11.50;;;15.30;99.90;;;;;;4995610;28;20320;-51
2021/09/06 04:09:02;;;;;;;17.17;12.20;;;15.30;99.90;;;;;;4998219;28;20619;-51
2021/09/06 04:11:29;;;;;;;20.03;12.57;;;15.30;99.90;;;;;;4997348;28;20575;-50
2021/09/06 04:13:56;;;;;;;20.63;13.10;;;15.30;99.90;;;;;;4999217;28;20260;-51
2021/09/06 04:16:23;;;;;;;23.60;14.43;;;15.30;99.90;;;;;;4995282;28;20842;-51
2021/09/06 04:18:49;;;;;;;23.47;13.57;;;15.30;99.90;;;;;;4997910;28;20695;-51
2021/09/06 04:21:16;;;;;;;22.53;12.90;;;15.30;99.90;;;;;;5000110;28;20632;-51
2021/09/06 04:23:43;;;;;;;20.70;12.67;;;15.30;99.90;;;;;;5000528;28;20303;-51
2021/09/06 04:26:10;;;;;;;19.67;13.70;;;15.20;99.90;;;;;;4998930;28;20727;-51
2021/09/06 04:28:36;;;;;;;21.27;13.03;;;15.30;99.90;;;;;;4997883;28;20216;-52
2021/09/06 04:31:03;;;;;;;19.83;13.33;;;15.30;99.90;;;;;;4995886;28;20244;-51
2021/09/06 04:33:30;;;;;;;20.13;12.73;;;15.30;99.90;;;;;;4997607;28;20235;-51
2021/09/06 04:35:57;;;;;;;22.30;13.90;;;15.30;99.90;;;;;;4995464;28;20339;-51
2021/09/06 04:38:24;;;;;;;23.40;13.07;;;15.30;99.90;;;;;;4994220;28;20213;-51
2021/09/06 04:40:50;;;;;;;21.20;13.17;;;15.40;99.90;;;;;;4998754;28;20609;-51
2021/09/06 04:43:17;;;;;;;22.73;12.70;;;15.30;99.90;;;;;;4996409;28;20201;-51
2021/09/06 04:45:44;;;;;;;20.13;13.27;;;15.40;99.90;;;;;;5011536;28;20597;-51
2021/09/06 04:48:11;;;;;;;18.50;12.37;;;15.30;99.90;;;;;;4997137;28;20660;-51
2021/09/06 04:50:37;;;;;;;22.47;12.57;;;15.20;99.90;;;;;;4998141;28;20320;-51
2021/09/06 04:53:04;;;;;;;20.57;13.03;;;15.20;99.90;;;;;;4999298;28;20276;-51
2021/09/06 04:55:31;;;;;;;19.30;12.93;;;15.10;99.90;;;;;;4996451;28;20667;-51
2021/09/06 04:57:58;;;;;;;19.87;12.73;;;15.10;99.90;;;;;;4999243;28;20244;-51
2021/09/06 05:00:25;;;;;;;20.50;12.77;;;15.20;99.90;;;;;;4999263;28;20291;-51
2021/09/06 05:02:51;;;;;;;20.63;13.43;;;15.10;99.90;;;;;;5000093;28;20299;-51
2021/09/06 05:05:19;;;;;;;19.20;13.60;;;15.10;99.90;;;;;;4997704;28;20298;-52
2021/09/06 05:07:45;;;;;;;22.17;13.53;;;15.10;99.90;;;;;;4996216;28;20337;-51
2021/09/06 05:10:12;;;;;;;21.20;14.70;;;15.20;99.90;;;;;;4997210;28;20339;-52
2021/09/06 05:12:39;;;;;;;20.23;13.03;;;15.20;99.90;;;;;;4997014;28;20276;-51
2021/09/06 05:15:06;;;;;;;17.53;12.13;;;15.20;99.90;;;;;;4996213;28;20284;-51
2021/09/06 05:17:34;;;;;;;21.33;12.83;;;15.20;99.90;;;;;;4999622;28;20270;-52
2021/09/06 05:20:01;;;;;;;20.10;13.13;;;15.20;99.90;;;;;;4998662;28;20704;-51
2021/09/06 05:22:28;;;;;;;20.93;13.07;;;15.10;99.90;;;;;;4997899;28;20237;-52
2021/09/06 05:24:55;;;;;;;21.80;13.20;;;15.10;99.90;;;;;;4994858;28;20223;-51
2021/09/06 05:27:22;;;;;;;21.70;13.83;;;15.10;99.90;;;;;;4994467;28;20216;-50
2021/09/06 05:29:49;;;;;;;19.77;13.50;;;15.10;99.90;;;;;;5000772;28;20394;-50
2021/09/06 05:32:16;;;;;;;25.70;14.67;;;15.10;99.90;;;;;;4995531;28;20306;-50
2021/09/06 05:34:43;;;;;;;20.03;13.30;;;15.20;99.90;;;;;;5001045;28;20295;-50
2021/09/06 05:37:09;;;;;;;22.00;13.67;;;15.20;99.90;;;;;;4998514;28;20291;-50
2021/09/06 05:39:36;;;;;;;20.87;13.70;;;15.20;99.90;;;;;;4995456;28;20676;-50
2021/09/06 05:42:03;;;;;;;19.80;12.30;;;15.20;99.90;;;;;;4996016;28;20623;-50
2021/09/06 05:44:30;;;;;;;18.23;11.60;;;15.20;99.90;;;;;;4996606;28;20301;-50
2021/09/06 05:46:57;;;;;;;22.20;13.07;;;15.20;99.90;;;;;;4991341;28;20387;-50
2021/09/06 05:49:24;;;;;;;22.33;13.80;;;15.10;99.90;;;;;;4994954;28;20574;-50
2021/09/06 05:51:51;;;;;;;22.47;15.07;;;15.20;99.90;;;;;;4991304;28;20216;-50
2021/09/06 05:54:17;;;;;;;25.00;15.37;;;15.20;99.90;;;;;;4990591;28;20204;-50
2021/09/06 05:56:44;;;;;;;22.43;14.87;;;15.20;99.90;;;;;;4996625;28;20194;-50
2021/09/06 05:59:11;;;;;;;21.87;14.97;;;15.20;99.90;;;;;;4997162;28;20300;-50
2021/09/06 06:01:38;;;;;;;28.50;16.10;;;15.20;99.90;;;;;;4990003;28;20680;-50
2021/09/06 06:04:05;;;;;;;26.73;14.73;;;15.20;99.90;;;;;;4993159;28;20266;-50
2021/09/06 06:06:32;;;;;;;23.57;14.80;;;15.20;99.90;;;;;;4995886;28;20291;-50
2021/09/06 06:08:58;;;;;;;25.47;14.43;;;15.20;99.90;;;;;;4995755;28;20244;-51
2021/09/06 06:11:25;;;;;;;25.93;15.33;;;15.20;99.90;;;;;;4996795;28;20319;-50
2021/09/06 06:13:52;;;;;;;21.67;15.57;;;15.30;99.90;;;;;;4993607;28;20288;-51
2021/09/06 06:16:19;;;;;;;23.90;15.60;;;15.40;99.90;;;;;;4991190;28;20264;-50
2021/09/06 06:18:45;;;;;;;26.37;16.93;;;15.40;99.90;;;;;;4994638;28;20216;-51
2021/09/06 06:21:12;;;;;;;22.83;15.07;;;15.50;99.90;;;;;;4996270;28;20639;-50
2021/09/06 06:23:39;;;;;;;26.27;15.67;;;15.50;99.90;;;;;;4992352;28;20550;-50
2021/09/06 06:26:06;;;;;;;26.27;15.30;;;15.50;99.90;;;;;;4989708;28;20283;-50
2021/09/06 06:28:32;;;;;;;24.93;15.70;;;15.60;99.90;;;;;;4991276;28;20378;-50
2021/09/06 06:30:59;;;;;;;26.43;17.03;;;15.60;99.90;;;;;;4991269;28;20573;-50
2021/09/06 06:33:29;;;;;;;24.53;16.17;;;15.70;99.90;;;;;;4992937;28;20194;-50
2021/09/06 06:36:01;;;;;;;32.47;16.30;;;15.90;99.90;;;;;;4992598;28;20287;-50
2021/09/06 06:38:29;;;;;;;27.80;16.83;;;16.00;99.90;;;;;;4993571;28;20304;-50
2021/09/06 06:40:56;;;;;;;23.07;16.50;;;16.00;99.90;;;;;;4992537;28;20672;-57
2021/09/06 06:43:23;;;;;;;25.97;16.30;;;16.10;99.90;;;;;;4992663;28;20379;-57
2021/09/06 06:45:50;;;;;;;25.70;15.83;;;16.20;99.90;;;;;;4989328;28;20245;-58
2021/09/06 06:48:17;;;;;;;25.77;15.40;;;16.30;99.90;;;;;;4994538;28;20221;-50
2021/09/06 06:50:43;;;;;;;28.40;17.30;;;16.50;99.90;;;;;;4984432;28;20201;-51
2021/09/06 06:53:10;;;;;;;27.87;17.03;;;16.60;99.90;;;;;;4990392;28;20299;-50
2021/09/06 06:55:41;;;;;;;26.53;16.07;;;16.70;99.90;;;;;;4993946;28;22574;-50
2021/09/06 06:58:07;;;;;;;30.87;16.60;;;16.70;99.90;;;;;;4996582;28;20247;-50
2021/09/06 07:00:34;;;;;;;24.13;15.27;;;16.80;99.90;;;;;;4991896;28;20270;-50
2021/09/06 07:03:01;;;;;;;27.37;16.73;;;17.00;99.90;;;;;;4995433;28;20214;-50
2021/09/06 07:05:29;;;;;;;26.37;16.43;;;17.10;99.90;;;;;;4994411;28;20224;-51
2021/09/06 07:07:55;;;;;;;25.17;16.43;;;17.30;99.90;;;;;;4997513;28;20660;-51
2021/09/06 07:10:22;;;;;;;29.10;16.77;;;17.40;99.90;;;;;;4994207;28;20363;-50
2021/09/06 07:12:49;;;;;;;27.30;15.93;;;17.40;99.90;;;;;;4999638;28;20233;-50
2021/09/06 07:15:16;;;;;;;29.70;17.10;;;17.50;99.90;;;;;;4996012;28;20290;-50
2021/09/06 07:17:43;;;;;;;24.53;16.03;;;17.50;99.90;;;;;;4998119;28;20303;-51
2021/09/06 07:20:10;;;;;;;27.03;16.67;;;17.70;99.90;;;;;;4998544;28;20377;-50
2021/09/06 07:22:37;;;;;;;25.53;15.93;;;17.70;99.90;;;;;;4999358;28;20216;-50
2021/09/06 07:25:04;;;;;;;26.53;16.63;;;17.90;99.90;;;;;;4998985;28;20232;-50
2021/09/06 07:27:31;;;;;;;25.00;15.83;;;18.00;99.90;;;;;;5002063;28;20245;-51
2021/09/06 07:29:58;;;;;;;25.63;15.73;;;18.10;99.90;;;;;;5000542;28;20228;-50
2021/09/06 07:32:25;;;;;;;28.13;16.60;;;18.20;99.90;;;;;;4999599;28;20245;-50
2021/09/06 07:34:52;;;;;;;30.27;17.10;;;18.20;99.90;;;;;;4994087;28;20286;-50
2021/09/06 07:37:18;;;;;;;27.00;17.97;;;18.30;99.90;;;;;;5000465;28;20338;-50
2021/09/06 07:39:47;;;;;;;25.33;16.23;;;18.40;99.90;;;;;;4992585;28;20199;-51
2021/09/06 07:42:14;;;;;;;25.37;15.93;;;18.40;99.90;;;;;;4998220;28;20558;-51
2021/09/06 07:44:41;;;;;;;27.60;16.67;;;18.50;99.90;;;;;;5001168;28;20294;-50
2021/09/06 07:47:09;;;;;;;25.00;16.00;;;18.60;99.90;;;;;;5000458;28;20294;-50
2021/09/06 07:49:36;;;;;;;27.83;16.03;;;18.70;69.50;;;;;;5001976;28;20306;-51
2021/09/06 07:52:03;;;;;;;26.93;15.40;;;18.70;2.70;;;;;;5005912;28;20249;-50
2021/09/06 07:54:29;;;;;;;25.70;16.37;;;18.70;19.60;;;;;;5001876;28;20196;-50
2021/09/06 07:57:00;;;;;;;22.97;15.53;;;18.80;89.60;;;;;;4999178;28;20209;-51
2021/09/06 07:59:27;;;;;;;25.83;15.73;;;18.90;37.30;;;;;;5001119;28;20235;-51
2021/09/06 08:01:55;;;;;;;26.53;16.33;;;18.90;8.70;;;;;;5001003;28;20198;-50
2021/09/06 08:04:23;;;;;;;23.03;15.50;;;18.90;1.00;;;;;;5004476;28;20289;-51
2021/09/06 08:06:49;;;;;;;25.13;15.03;;;19.20;1.00;;;;;;5010568;28;20249;-51
2021/09/06 08:09:16;;;;;;;25.73;15.40;;;19.20;1.00;;;;;;4999581;28;20293;-51
2021/09/06 08:11:46;;;;;;;21.90;13.67;;;19.40;1.00;;;;;;5007324;28;20322;-51
2021/09/06 08:14:13;;;;;;;23.50;15.67;;;19.60;1.00;;;;;;5002820;28;20603;-51
2021/09/06 08:16:39;;;;;;;24.93;14.77;;;19.70;1.00;;;;;;4995284;28;20679;-51
2021/09/06 08:19:06;;;;;;;22.13;15.43;;;19.70;99.90;;;;;;4992691;28;20207;-51
2021/09/06 08:21:33;;;;;;;23.50;15.80;;;19.70;42.10;;;;;;4995931;28;20673;-51
2021/09/06 08:24:00;;;;;;;23.40;14.70;;;19.70;1.00;;;;;;5005533;28;20205;-51
2021/09/06 08:26:27;;;;;;;21.97;14.50;;;19.70;99.90;;;;;;4997648;28;20375;-50
2021/09/06 08:28:54;;;;;;;21.83;14.47;;;19.80;99.90;;;;;;4996877;28;20297;-50
2021/09/06 08:31:21;;;;;;;26.20;15.30;;;20.00;1.00;;;;;;4998342;28;20315;-50
2021/09/06 08:33:48;;;;;;;23.00;14.53;;;20.20;1.00;;;;;;4995659;28;20212;-51
2021/09/06 08:36:15;;;;;;;21.87;14.60;;;20.20;99.90;;;;;;4996032;28;20504;-51
2021/09/06 08:38:41;;;;;;;24.17;14.73;;;20.50;99.90;;;;;;4998649;28;20235;-51
2021/09/06 08:41:08;;;;;;;18.93;13.17;;;20.50;99.90;;;;;;4992600;28;20390;-51
2021/09/06 08:43:35;;;;;;;21.23;13.80;;;20.80;99.90;;;;;;4999071;28;20739;-51
2021/09/06 08:46:02;;;;;;;19.73;13.27;;;21.10;1.00;;;;;;4994296;28;20233;-50
2021/09/06 08:48:30;;;;;;;24.53;13.77;;;21.30;99.90;;;;;;4996895;28;20880;-51
2021/09/06 08:50:56;;;;;;;21.27;13.50;;;21.60;1.00;;;;;;4995173;28;20252;-51
2021/09/06 08:53:23;;;;;;;21.70;13.33;;;21.80;1.00;;;;;;4995082;28;20208;-51
2021/09/06 08:55:53;;;;;;;22.57;13.50;;;22.20;1.00;;;;;;4994085;28;20332;-51
2021/09/06 08:58:40;;;;;;;19.83;13.10;;;22.20;1.00;;;;;;4998437;28;20292;-51
2021/09/06 09:01:07;;;;;;;22.80;12.70;;;22.50;1.00;;;;;;4996086;28;20267;-51
2021/09/06 09:03:34;;;;;;;18.40;12.63;;;22.50;99.90;;;;;;4992570;28;20610;-51
2021/09/06 09:06:03;;;;;;;21.87;13.67;;;22.40;1.00;;;;;;4992608;28;20201;-50
2021/09/06 09:08:31;;;;;;;17.23;12.17;;;22.60;99.90;;;;;;4989864;28;20416;-51
2021/09/06 09:11:06;;;;;;;21.57;12.37;;;22.70;1.00;;;;;;4998532;28;20360;-51
2021/09/06 09:13:37;;;;;;;18.77;12.87;;;23.00;1.00;;;;;;4994880;28;20201;-51
2021/09/06 09:16:06;;;;;;;18.77;12.40;;;23.10;1.00;;;;;;4996454;28;20692;-51
2021/09/06 09:18:34;;;;;;;20.40;12.83;;;23.30;1.00;;;;;;4993339;28;20608;-51
2021/09/06 09:21:06;;;;;;;26.27;14.17;;;23.30;1.00;;;;;;4998828;28;20605;-51
2021/09/06 09:23:53;;;;;;;18.33;12.77;;;23.10;99.90;;;;;;4995420;28;20206;-51
2021/09/06 09:26:20;;;;;;;18.87;11.80;;;23.20;99.90;;;;;;4995741;28;20293;-51
2021/09/06 09:28:47;;;;;;;17.40;11.63;;;22.90;99.90;;;;;;4995724;28;20302;-51
2021/09/06 09:31:17;;;;;;;14.97;10.57;;;23.00;1.00;;;;;;4996288;28;20580;-51
2021/09/06 09:33:54;;;;;;;17.03;10.17;;;23.00;1.00;;;;;;4999370;28;20308;-50
2021/09/06 09:36:33;;;;;;;17.90;11.20;;;23.10;1.00;;;;;;4997064;28;20234;-50
2021/09/06 09:39:15;;;;;;;14.20;9.63;;;23.00;1.00;;;;;;4995715;28;20203;-51
2021/09/06 09:41:44;;;;;;;15.23;9.80;;;22.90;1.00;;;;;;4998542;28;20233;-51
2021/09/06 09:44:12;;;;;;;17.73;10.03;;;22.60;1.00;;;;;;5002423;28;20211;-50
2021/09/06 09:46:40;;;;;;;14.30;9.57;;;22.50;1.00;;;;;;4999604;28;20282;-50
2021/09/06 09:49:14;;;;;;;14.63;9.83;;;22.80;1.00;;;;;;4998806;28;20232;-51
2021/09/06 09:51:41;;;;;;;16.93;9.63;;;22.80;99.90;;;;;;5001427;28;20195;-51
2021/09/06 09:54:08;;;;;;;17.50;10.90;;;23.10;1.00;;;;;;4994835;28;20293;-51
2021/09/06 09:56:35;;;;;;;18.40;11.03;;;23.20;1.00;;;;;;4998125;28;20198;-51
2021/09/06 09:59:02;;;;;;;16.70;11.63;;;23.40;1.00;;;;;;4996187;28;20262;-51
2021/09/06 10:01:35;;;;;;;16.07;10.93;;;23.10;1.00;;;;;;4996485;28;20684;-51
2021/09/06 10:04:03;;;;;;;16.87;10.70;;;22.90;1.00;;;;;;4997742;28;20281;-50
2021/09/06 10:06:32;;;;;;;15.40;9.87;;;22.60;99.90;;;;;;4997805;28;20732;-50
2021/09/06 10:08:59;;;;;;;16.90;11.07;;;22.60;1.00;;;;;;4999803;28;20264;-51
2021/09/06 10:11:39;;;;;;;17.53;11.27;;;22.90;1.00;;;;;;4993681;28;20313;-51
2021/09/06 10:14:20;;;;;;;18.20;10.37;;;22.90;1.00;;;;;;4989630;28;20195;-51
2021/09/06 10:17:07;;;;;;;18.37;12.60;;;22.90;1.00;;;;;;4994293;28;20200;-51
2021/09/06 10:19:43;;;;;;;18.27;12.40;;;23.00;1.00;;;;;;4993862;28;20681;-51
2021/09/06 10:22:27;;;;;;;21.10;13.30;;;22.90;1.90;;;;;;4994561;28;20288;-51
2021/09/06 10:24:59;;;;;;;16.83;12.00;;;23.00;1.00;;;;;;5007047;28;20218;-51
2021/09/06 10:27:28;;;;;;;21.63;13.23;;;22.80;1.00;;;;;;4991017;28;20261;-50
2021/09/06 10:30:05;;;;;;;17.33;11.90;;;22.90;1.00;;;;;;4996051;28;20344;-51
2021/09/06 10:32:50;;;;;;;19.60;12.90;;;23.10;1.00;;;;;;4987110;28;20316;-51
2021/09/06 10:35:22;;;;;;;20.97;13.63;;;22.90;1.00;;;;;;4987930;28;20259;-50
2021/09/06 10:38:05;;;;;;;18.37;12.60;;;23.10;1.00;;;;;;4992879;28;20246;-50
2021/09/06 10:40:36;;;;;;;22.20;11.63;;;23.20;1.00;;;;;;4996621;28;20273;-50
2021/09/06 10:43:17;;;;;;;21.07;11.77;;;23.00;1.00;;;;;;4996058;28;20335;-50
2021/09/06 10:45:48;;;;;;;20.30;11.87;;;22.90;1.00;;;;;;4999852;28;20199;-51
2021/09/06 10:48:25;;;;;;;17.00;11.63;;;22.90;1.00;;;;;;4996205;28;20316;-51
2021/09/06 10:50:53;;;;;;;14.73;10.33;;;23.10;43.80;;;;;;4994273;28;20285;-51
2021/09/06 10:53:22;;;;;;;15.13;10.07;;;23.20;76.50;;;;;;4994562;28;20237;-51
2021/09/06 10:55:54;;;;;;;20.07;11.90;;;23.30;99.90;;;;;;4996407;28;20414;-50
2021/09/06 10:58:25;;;;;;;17.70;11.17;;;23.50;1.00;;;;;;4996171;28;20236;-50
2021/09/06 11:00:54;;;;;;;15.13;10.67;;;23.60;26.90;;;;;;5001031;28;20207;-50
2021/09/06 11:03:24;;;;;;;15.40;9.73;;;23.50;1.00;;;;;;4993800;28;20648;-50
2021/09/06 11:05:56;;;;;;;18.20;10.30;;;23.60;1.00;;;;;;4993725;28;20642;-50
2021/09/06 11:08:28;;;;;;;15.30;10.33;;;23.50;1.00;;;;;;4996910;28;20243;-51
2021/09/06 11:10:57;;;;;;;15.93;9.23;;;23.40;1.00;;;;;;5000451;28;20320;-50
2021/09/06 11:13:41;;;;;;;14.13;8.87;;;23.50;1.00;;;;;;5000960;28;20625;-50
2021/09/06 11:16:12;;;;;;;13.30;9.10;;;23.80;1.00;;;;;;5006151;28;20302;-50
2021/09/06 11:18:42;;;;;;;14.43;9.87;;;24.00;1.00;;;;;;5000554;28;20212;-50
2021/09/06 11:21:09;;;;;;;19.03;11.10;;;23.90;1.00;;;;;;5008472;28;20307;-50
2021/09/06 11:23:45;;;;;;;15.97;9.67;;;24.00;1.00;;;;;;5000691;28;20755;-50
2021/09/06 11:26:24;;;;;;;17.17;10.77;;;24.20;1.00;;;;;;4999295;28;20261;-50
2021/09/06 11:28:50;;;;;;;18.13;11.03;;;24.30;1.00;;;;;;5000471;28;20276;-50
2021/09/06 11:31:18;;;;;;;14.97;9.90;;;24.40;1.00;;;;;;5000918;28;20247;-50
2021/09/06 11:33:46;;;;;;;15.70;10.67;;;24.70;1.00;;;;;;5002742;28;20713;-50
2021/09/06 11:36:17;;;;;;;18.23;11.87;;;24.60;1.00;;;;;;5000067;28;20734;-50
2021/09/06 11:38:44;;;;;;;15.00;11.10;;;24.60;1.00;;;;;;5004023;28;20222;-50
2021/09/06 11:41:13;;;;;;;16.73;10.93;;;24.40;1.00;;;;;;5001689;28;20208;-50
2021/09/06 11:43:41;;;;;;;18.47;11.63;;;24.40;1.00;;;;;;5005543;28;20602;-50
2021/09/06 11:46:08;;;;;;;14.77;9.77;;;24.60;1.00;;;;;;5003845;28;20200;-50
2021/09/06 11:48:43;;;;;;;15.40;10.13;;;24.50;1.00;;;;;;5003768;28;20217;-50
2021/09/06 11:51:11;;;;;;;14.43;9.60;;;24.60;1.00;;;;;;4998379;28;20232;-50
2021/09/06 11:53:38;;;;;;;12.77;8.97;;;24.80;99.90;;;;;;5000891;28;20747;-50
2021/09/06 11:56:13;;;;;;;13.47;8.70;;;25.00;99.90;;;;;;5004878;28;20267;-50
2021/09/06 11:58:47;;;;;;;12.87;8.83;;;24.80;1.00;;;;;;4994900;28;21174;-49
2021/09/06 12:01:15;;;;;;;13.60;8.47;;;24.80;99.90;;;;;;5003834;28;20649;-50
2021/09/06 12:03:45;;;;;;;18.17;9.83;;;24.80;99.90;;;;;;4997951;28;20223;-50
2021/09/06 12:06:18;;;;;;;17.87;10.83;;;25.20;1.00;;;;;;4999433;28;20339;-50
2021/09/06 12:08:56;;;;;;;16.13;9.90;;;25.30;1.00;;;;;;4996274;28;20216;-50
2021/09/06 12:11:43;;;;;;;16.20;10.13;;;25.60;99.90;;;;;;5000075;28;20232;-50
2021/09/06 12:14:10;;;;;;;17.40;8.30;;;25.90;99.90;;;;;;4997839;28;20231;-50
2021/09/06 12:16:38;;;;;;;14.73;8.57;;;25.80;99.90;;;;;;5005091;28;20205;-50
2021/09/06 12:19:17;;;;;;;13.27;8.63;;;25.70;99.90;;;;;;4998177;28;20240;-50
2021/09/06 12:21:45;;;;;;;15.90;9.10;;;25.60;99.90;;;;;;5000586;28;20248;-50
2021/09/06 12:24:12;;;;;;;15.53;10.00;;;25.60;99.90;;;;;;5003220;28;20609;-50
2021/09/06 12:26:44;;;;;;;14.03;9.73;;;25.50;99.90;;;;;;5006177;28;20213;-50
2021/09/06 12:29:11;;;;;;;13.40;9.20;;;25.50;99.90;;;;;;5013344;28;20354;-50
2021/09/06 12:31:43;;;;;;;13.07;9.00;;;25.50;99.90;;;;;;4999766;28;20740;-50
2021/09/06 12:34:12;;;;;;;14.10;8.80;;;25.70;99.90;;;;;;5004213;28;20292;-49
2021/09/06 12:36:40;;;;;;;11.07;7.30;;;25.80;99.90;;;;;;4999670;28;20711;-50